NO-0071 weather

Hurdal Airstrip
Akershus, Norway

Public forecast

Using degrees Celsius for public forecast. Weather courtesy of forecast.io.

METAR (pilot weather report)

Closest report is Oslo Gardermoen Airport, 10.1 nm (18.7 km) S. Retrieved 2019/05/24 04:20 UTC (0 seconds ago):

ENGM 240420Z 13007KT 9000 -RA FEW008 BKN036 OVC049 08/07 Q1004 TEMPO SHRA BKN012 SCT020CB

TAF (pilot weather forecast)

Forecast is more than 12 hours old.

Closest forecast is Oslo Gardermoen Airport, 10.1 nm (18.7 km) S. Retrieved 2019/05/23 00:57 UTC (1 day ago):

TAF ENGM 232300Z 2400/2424 17012KT 9999 FEW015 BKN025 TEMPO 2400/2418 2000 SHRA BR BKN004 SCT015CB BECMG 2409/2411 04008KT